sensor_id;sensor_type;location;lat;lon;timestamp;P1;durP1;ratioP1;P2;durP2;ratioP2
32633;SDS011;19043;51.012;5.648;2023-03-26T00:01:09;23.15;;;8.13;;
32633;SDS011;19043;51.012;5.648;2023-03-26T00:03:35;22.70;;;7.65;;
32633;SDS011;19043;51.012;5.648;2023-03-26T00:06:02;27.95;;;7.72;;
32633;SDS011;19043;51.012;5.648;2023-03-26T00:08:28;27.35;;;8.43;;
32633;SDS011;19043;51.012;5.648;2023-03-26T00:10:53;20.95;;;7.18;;
32633;SDS011;19043;51.012;5.648;2023-03-26T00:13:18;18.02;;;6.13;;
32633;SDS011;19043;51.012;5.648;2023-03-26T00:15:43;25.13;;;8.27;;
32633;SDS011;19043;51.012;5.648;2023-03-26T00:18:09;21.95;;;7.90;;
32633;SDS011;19043;51.012;5.648;2023-03-26T00:20:34;25.92;;;7.80;;
32633;SDS011;19043;51.012;5.648;2023-03-26T00:22:59;21.85;;;8.05;;
32633;SDS011;19043;51.012;5.648;2023-03-26T00:25:27;38.08;;;9.15;;
32633;SDS011;19043;51.012;5.648;2023-03-26T00:27:53;25.98;;;7.85;;
32633;SDS011;19043;51.012;5.648;2023-03-26T00:30:19;20.58;;;7.30;;
32633;SDS011;19043;51.012;5.648;2023-03-26T00:32:44;27.75;;;8.48;;
32633;SDS011;19043;51.012;5.648;2023-03-26T00:35:09;29.50;;;8.02;;
32633;SDS011;19043;51.012;5.648;2023-03-26T00:37:35;26.52;;;8.00;;
32633;SDS011;19043;51.012;5.648;2023-03-26T00:40:00;34.28;;;7.18;;
32633;SDS011;19043;51.012;5.648;2023-03-26T00:42:31;22.38;;;7.40;;
32633;SDS011;19043;51.012;5.648;2023-03-26T00:44:57;30.50;;;7.82;;
32633;SDS011;19043;51.012;5.648;2023-03-26T00:47:26;22.50;;;8.07;;
32633;SDS011;19043;51.012;5.648;2023-03-26T00:49:52;26.42;;;8.05;;
32633;SDS011;19043;51.012;5.648;2023-03-26T00:52:17;17.95;;;6.88;;
32633;SDS011;19043;51.012;5.648;2023-03-26T00:54:49;20.13;;;6.68;;
32633;SDS011;19043;51.012;5.648;2023-03-26T00:57:15;20.75;;;7.22;;
32633;SDS011;19043;51.012;5.648;2023-03-26T00:59:40;24.30;;;6.90;;
32633;SDS011;19043;51.012;5.648;2023-03-26T01:02:06;23.20;;;7.10;;
32633;SDS011;19043;51.012;5.648;2023-03-26T01:04:34;30.70;;;7.15;;
32633;SDS011;19043;51.012;5.648;2023-03-26T01:07:08;29.90;;;7.78;;
32633;SDS011;19043;51.012;5.648;2023-03-26T01:09:34;30.42;;;7.57;;
32633;SDS011;19043;51.012;5.648;2023-03-26T01:12:01;22.42;;;7.03;;
32633;SDS011;19043;51.012;5.648;2023-03-26T01:14:27;16.73;;;6.57;;
32633;SDS011;19043;51.012;5.648;2023-03-26T01:16:57;13.38;;;5.85;;
32633;SDS011;19043;51.012;5.648;2023-03-26T01:22:04;15.32;;;5.28;;
32633;SDS011;19043;51.012;5.648;2023-03-26T01:24:29;21.17;;;6.38;;
32633;SDS011;19043;51.012;5.648;2023-03-26T01:29:43;17.77;;;5.13;;
32633;SDS011;19043;51.012;5.648;2023-03-26T01:37:18;14.40;;;4.53;;
32633;SDS011;19043;51.012;5.648;2023-03-26T01:39:49;14.90;;;5.13;;
32633;SDS011;19043;51.012;5.648;2023-03-26T01:42:36;17.88;;;5.28;;
32633;SDS011;19043;51.012;5.648;2023-03-26T01:45:12;17.25;;;5.07;;
32633;SDS011;19043;51.012;5.648;2023-03-26T01:47:39;14.70;;;5.10;;
32633;SDS011;19043;51.012;5.648;2023-03-26T01:50:05;17.65;;;5.00;;
32633;SDS011;19043;51.012;5.648;2023-03-26T01:52:31;13.48;;;4.45;;
32633;SDS011;19043;51.012;5.648;2023-03-26T01:54:56;12.38;;;4.47;;
32633;SDS011;19043;51.012;5.648;2023-03-26T02:04:58;18.13;;;4.15;;
32633;SDS011;19043;51.012;5.648;2023-03-26T02:07:33;8.90;;;3.80;;
32633;SDS011;19043;51.012;5.648;2023-03-26T02:10:12;23.08;;;5.13;;
32633;SDS011;19043;51.012;5.648;2023-03-26T02:12:39;14.85;;;4.57;;
32633;SDS011;19043;51.012;5.648;2023-03-26T02:15:05;16.58;;;5.10;;
32633;SDS011;19043;51.012;5.648;2023-03-26T02:17:30;17.75;;;5.25;;
32633;SDS011;19043;51.012;5.648;2023-03-26T02:19:57;21.10;;;4.45;;
32633;SDS011;19043;51.012;5.648;2023-03-26T02:22:22;19.67;;;5.00;;
32633;SDS011;19043;51.012;5.648;2023-03-26T02:24:54;18.17;;;4.75;;
32633;SDS011;19043;51.012;5.648;2023-03-26T02:27:19;17.73;;;3.92;;
32633;SDS011;19043;51.012;5.648;2023-03-26T02:29:45;16.83;;;5.13;;
32633;SDS011;19043;51.012;5.648;2023-03-26T02:32:11;12.85;;;4.93;;
32633;SDS011;19043;51.012;5.648;2023-03-26T02:34:38;9.73;;;3.88;;
32633;SDS011;19043;51.012;5.648;2023-03-26T02:37:03;19.38;;;4.53;;
32633;SDS011;19043;51.012;5.648;2023-03-26T02:39:28;9.88;;;4.55;;
32633;SDS011;19043;51.012;5.648;2023-03-26T02:41:54;9.77;;;4.07;;
32633;SDS011;19043;51.012;5.648;2023-03-26T02:44:19;16.15;;;4.55;;
32633;SDS011;19043;51.012;5.648;2023-03-26T02:46:45;14.40;;;4.10;;
32633;SDS011;19043;51.012;5.648;2023-03-26T02:49:10;12.32;;;5.18;;
32633;SDS011;19043;51.012;5.648;2023-03-26T02:51:35;12.00;;;4.25;;
32633;SDS011;19043;51.012;5.648;2023-03-26T02:54:01;17.58;;;4.53;;
32633;SDS011;19043;51.012;5.648;2023-03-26T02:56:27;11.27;;;4.72;;
32633;SDS011;19043;51.012;5.648;2023-03-26T02:58:52;14.32;;;4.43;;
32633;SDS011;19043;51.012;5.648;2023-03-26T03:01:17;23.13;;;4.50;;
32633;SDS011;19043;51.012;5.648;2023-03-26T03:03:43;16.25;;;4.93;;
32633;SDS011;19043;51.012;5.648;2023-03-26T03:06:08;16.42;;;5.78;;
32633;SDS011;19043;51.012;5.648;2023-03-26T03:08:33;17.48;;;4.15;;
32633;SDS011;19043;51.012;5.648;2023-03-26T03:11:00;17.10;;;5.20;;
32633;SDS011;19043;51.012;5.648;2023-03-26T03:13:26;10.38;;;4.28;;
32633;SDS011;19043;51.012;5.648;2023-03-26T03:15:51;12.18;;;4.65;;
32633;SDS011;19043;51.012;5.648;2023-03-26T03:18:17;18.92;;;5.32;;
32633;SDS011;19043;51.012;5.648;2023-03-26T03:20:43;17.88;;;4.53;;
32633;SDS011;19043;51.012;5.648;2023-03-26T03:23:09;16.73;;;4.43;;
32633;SDS011;19043;51.012;5.648;2023-03-26T03:25:34;15.23;;;4.65;;
32633;SDS011;19043;51.012;5.648;2023-03-26T03:27:59;12.80;;;5.35;;
32633;SDS011;19043;51.012;5.648;2023-03-26T03:30:24;8.55;;;3.92;;
32633;SDS011;19043;51.012;5.648;2023-03-26T03:32:50;20.00;;;5.47;;
32633;SDS011;19043;51.012;5.648;2023-03-26T03:35:15;18.00;;;4.85;;
32633;SDS011;19043;51.012;5.648;2023-03-26T03:37:40;14.98;;;4.85;;
32633;SDS011;19043;51.012;5.648;2023-03-26T03:40:06;19.80;;;5.15;;
32633;SDS011;19043;51.012;5.648;2023-03-26T03:42:32;13.88;;;5.22;;
32633;SDS011;19043;51.012;5.648;2023-03-26T03:44:57;20.58;;;5.10;;
32633;SDS011;19043;51.012;5.648;2023-03-26T03:47:23;16.63;;;5.25;;
32633;SDS011;19043;51.012;5.648;2023-03-26T03:49:48;15.80;;;4.20;;
32633;SDS011;19043;51.012;5.648;2023-03-26T03:52:14;17.00;;;4.55;;
32633;SDS011;19043;51.012;5.648;2023-03-26T03:54:40;12.48;;;4.57;;
32633;SDS011;19043;51.012;5.648;2023-03-26T03:57:05;18.52;;;5.53;;
32633;SDS011;19043;51.012;5.648;2023-03-26T03:59:31;26.30;;;5.25;;
32633;SDS011;19043;51.012;5.648;2023-03-26T04:01:56;14.57;;;5.15;;
32633;SDS011;19043;51.012;5.648;2023-03-26T04:04:21;23.40;;;5.72;;
32633;SDS011;19043;51.012;5.648;2023-03-26T04:06:48;15.48;;;4.13;;
32633;SDS011;19043;51.012;5.648;2023-03-26T04:09:13;15.13;;;6.07;;
32633;SDS011;19043;51.012;5.648;2023-03-26T04:11:39;12.30;;;5.25;;
32633;SDS011;19043;51.012;5.648;2023-03-26T04:14:04;14.38;;;5.57;;
32633;SDS011;19043;51.012;5.648;2023-03-26T04:16:29;15.60;;;4.60;;
32633;SDS011;19043;51.012;5.648;2023-03-26T04:18:55;11.90;;;4.57;;
32633;SDS011;19043;51.012;5.648;2023-03-26T04:21:21;14.30;;;5.68;;
32633;SDS011;19043;51.012;5.648;2023-03-26T04:23:48;17.23;;;5.72;;
32633;SDS011;19043;51.012;5.648;2023-03-26T04:26:14;14.05;;;5.18;;
32633;SDS011;19043;51.012;5.648;2023-03-26T04:31:07;19.20;;;5.65;;
32633;SDS011;19043;51.012;5.648;2023-03-26T04:33:35;13.15;;;5.22;;
32633;SDS011;19043;51.012;5.648;2023-03-26T04:36:03;23.52;;;5.60;;
32633;SDS011;19043;51.012;5.648;2023-03-26T04:38:29;15.23;;;5.63;;
32633;SDS011;19043;51.012;5.648;2023-03-26T04:40:58;13.77;;;4.72;;
32633;SDS011;19043;51.012;5.648;2023-03-26T04:43:24;18.50;;;5.65;;
32633;SDS011;19043;51.012;5.648;2023-03-26T04:45:50;13.65;;;5.00;;
32633;SDS011;19043;51.012;5.648;2023-03-26T04:48:16;16.02;;;4.95;;
32633;SDS011;19043;51.012;5.648;2023-03-26T04:50:41;17.45;;;5.63;;
32633;SDS011;19043;51.012;5.648;2023-03-26T04:53:08;14.73;;;4.75;;
32633;SDS011;19043;51.012;5.648;2023-03-26T04:55:39;12.05;;;4.95;;
32633;SDS011;19043;51.012;5.648;2023-03-26T04:58:06;15.93;;;5.15;;
32633;SDS011;19043;51.012;5.648;2023-03-26T05:00:31;14.13;;;4.40;;
32633;SDS011;19043;51.012;5.648;2023-03-26T05:02:56;13.55;;;5.05;;
32633;SDS011;19043;51.012;5.648;2023-03-26T05:05:25;22.40;;;5.57;;
32633;SDS011;19043;51.012;5.648;2023-03-26T05:07:51;14.05;;;5.72;;
32633;SDS011;19043;51.012;5.648;2023-03-26T05:10:16;17.35;;;5.50;;
32633;SDS011;19043;51.012;5.648;2023-03-26T05:12:44;14.60;;;5.53;;
32633;SDS011;19043;51.012;5.648;2023-03-26T05:15:10;20.58;;;5.38;;
32633;SDS011;19043;51.012;5.648;2023-03-26T05:17:36;17.85;;;5.88;;
32633;SDS011;19043;51.012;5.648;2023-03-26T05:20:05;16.80;;;5.65;;
32633;SDS011;19043;51.012;5.648;2023-03-26T05:22:32;18.30;;;5.32;;
32633;SDS011;19043;51.012;5.648;2023-03-26T05:24:58;24.90;;;5.85;;
32633;SDS011;19043;51.012;5.648;2023-03-26T05:27:23;13.00;;;5.07;;
32633;SDS011;19043;51.012;5.648;2023-03-26T05:29:48;17.98;;;5.28;;
32633;SDS011;19043;51.012;5.648;2023-03-26T05:32:13;11.23;;;4.75;;
32633;SDS011;19043;51.012;5.648;2023-03-26T05:34:39;16.33;;;5.93;;
32633;SDS011;19043;51.012;5.648;2023-03-26T05:37:05;22.85;;;5.45;;
32633;SDS011;19043;51.012;5.648;2023-03-26T05:39:31;14.25;;;5.65;;
32633;SDS011;19043;51.012;5.648;2023-03-26T05:41:56;19.75;;;6.07;;
32633;SDS011;19043;51.012;5.648;2023-03-26T05:44:21;17.30;;;5.68;;
32633;SDS011;19043;51.012;5.648;2023-03-26T05:46:47;16.70;;;5.32;;
32633;SDS011;19043;51.012;5.648;2023-03-26T05:49:12;15.15;;;5.47;;
32633;SDS011;19043;51.012;5.648;2023-03-26T05:51:37;21.02;;;6.35;;
32633;SDS011;19043;51.012;5.648;2023-03-26T05:54:03;12.95;;;4.65;;
32633;SDS011;19043;51.012;5.648;2023-03-26T05:56:28;17.70;;;5.35;;
32633;SDS011;19043;51.012;5.648;2023-03-26T05:58:54;13.68;;;5.22;;
32633;SDS011;19043;51.012;5.648;2023-03-26T06:01:19;17.95;;;4.88;;
32633;SDS011;19043;51.012;5.648;2023-03-26T06:03:45;16.27;;;5.70;;
32633;SDS011;19043;51.012;5.648;2023-03-26T06:06:11;14.05;;;4.72;;
32633;SDS011;19043;51.012;5.648;2023-03-26T06:08:44;15.43;;;5.72;;
32633;SDS011;19043;51.012;5.648;2023-03-26T06:11:13;17.83;;;4.90;;
32633;SDS011;19043;51.012;5.648;2023-03-26T06:13:38;16.23;;;4.03;;
32633;SDS011;19043;51.012;5.648;2023-03-26T06:16:04;14.18;;;4.88;;
32633;SDS011;19043;51.012;5.648;2023-03-26T06:18:29;16.00;;;5.38;;
32633;SDS011;19043;51.012;5.648;2023-03-26T06:20:55;11.65;;;4.75;;
32633;SDS011;19043;51.012;5.648;2023-03-26T06:23:20;19.05;;;4.80;;
32633;SDS011;19043;51.012;5.648;2023-03-26T06:25:47;21.25;;;5.40;;
32633;SDS011;19043;51.012;5.648;2023-03-26T06:28:12;19.85;;;5.95;;
32633;SDS011;19043;51.012;5.648;2023-03-26T06:30:38;13.20;;;4.43;;
32633;SDS011;19043;51.012;5.648;2023-03-26T06:33:03;13.63;;;5.78;;
32633;SDS011;19043;51.012;5.648;2023-03-26T06:35:28;21.92;;;5.38;;
32633;SDS011;19043;51.012;5.648;2023-03-26T06:37:54;12.27;;;4.70;;
32633;SDS011;19043;51.012;5.648;2023-03-26T06:40:19;21.98;;;5.22;;
32633;SDS011;19043;51.012;5.648;2023-03-26T06:42:45;18.10;;;4.70;;
32633;SDS011;19043;51.012;5.648;2023-03-26T06:45:10;12.27;;;4.68;;
32633;SDS011;19043;51.012;5.648;2023-03-26T06:47:35;10.90;;;4.45;;
32633;SDS011;19043;51.012;5.648;2023-03-26T06:50:01;20.98;;;4.43;;
32633;SDS011;19043;51.012;5.648;2023-03-26T06:52:26;21.08;;;5.32;;
32633;SDS011;19043;51.012;5.648;2023-03-26T06:54:52;13.25;;;5.20;;
32633;SDS011;19043;51.012;5.648;2023-03-26T06:57:17;12.25;;;5.18;;
32633;SDS011;19043;51.012;5.648;2023-03-26T06:59:43;17.88;;;5.68;;
32633;SDS011;19043;51.012;5.648;2023-03-26T07:02:09;17.88;;;6.07;;
32633;SDS011;19043;51.012;5.648;2023-03-26T07:04:34;14.82;;;5.05;;
32633;SDS011;19043;51.012;5.648;2023-03-26T07:07:00;15.43;;;5.18;;
32633;SDS011;19043;51.012;5.648;2023-03-26T07:09:25;11.95;;;4.32;;
32633;SDS011;19043;51.012;5.648;2023-03-26T07:11:54;17.02;;;4.45;;
32633;SDS011;19043;51.012;5.648;2023-03-26T07:14:19;13.90;;;4.88;;
32633;SDS011;19043;51.012;5.648;2023-03-26T07:16:44;12.35;;;4.97;;
32633;SDS011;19043;51.012;5.648;2023-03-26T07:19:10;13.57;;;4.97;;
32633;SDS011;19043;51.012;5.648;2023-03-26T07:21:35;7.85;;;3.67;;
32633;SDS011;19043;51.012;5.648;2023-03-26T07:24:01;8.35;;;3.50;;
32633;SDS011;19043;51.012;5.648;2023-03-26T07:29:06;12.57;;;4.57;;
32633;SDS011;19043;51.012;5.648;2023-03-26T07:47:16;9.90;;;3.67;;
32633;SDS011;19043;51.012;5.648;2023-03-26T07:49:49;10.57;;;3.22;;
32633;SDS011;19043;51.012;5.648;2023-03-26T07:52:15;7.60;;;3.33;;
32633;SDS011;19043;51.012;5.648;2023-03-26T07:54:41;12.75;;;3.65;;
32633;SDS011;19043;51.012;5.648;2023-03-26T07:57:15;10.55;;;3.38;;
32633;SDS011;19043;51.012;5.648;2023-03-26T07:59:44;15.93;;;3.78;;
32633;SDS011;19043;51.012;5.648;2023-03-26T08:08:01;8.82;;;3.63;;
32633;SDS011;19043;51.012;5.648;2023-03-26T08:17:43;12.10;;;6.40;;
32633;SDS011;19043;51.012;5.648;2023-03-26T08:22:52;7.15;;;3.38;;
32633;SDS011;19043;51.012;5.648;2023-03-26T08:25:28;13.35;;;3.95;;
32633;SDS011;19043;51.012;5.648;2023-03-26T08:30:23;11.75;;;3.33;;
32633;SDS011;19043;51.012;5.648;2023-03-26T08:32:53;6.82;;;2.92;;
32633;SDS011;19043;51.012;5.648;2023-03-26T08:35:20;8.15;;;2.95;;
32633;SDS011;19043;51.012;5.648;2023-03-26T08:37:45;8.98;;;3.17;;
32633;SDS011;19043;51.012;5.648;2023-03-26T08:40:11;5.75;;;2.25;;
32633;SDS011;19043;51.012;5.648;2023-03-26T08:48:15;7.18;;;2.88;;
32633;SDS011;19043;51.012;5.648;2023-03-26T08:56:07;7.40;;;2.72;;
32633;SDS011;19043;51.012;5.648;2023-03-26T09:11:49;7.00;;;2.70;;
32633;SDS011;19043;51.012;5.648;2023-03-26T09:25:46;7.30;;;2.87;;
32633;SDS011;19043;51.012;5.648;2023-03-26T09:28:27;8.85;;;2.30;;
32633;SDS011;19043;51.012;5.648;2023-03-26T09:33:55;5.57;;;2.17;;
32633;SDS011;19043;51.012;5.648;2023-03-26T09:41:15;9.25;;;2.47;;
32633;SDS011;19043;51.012;5.648;2023-03-26T09:54:13;5.43;;;1.85;;
32633;SDS011;19043;51.012;5.648;2023-03-26T10:02:04;5.70;;;1.98;;
32633;SDS011;19043;51.012;5.648;2023-03-26T10:04:52;5.07;;;1.70;;
32633;SDS011;19043;51.012;5.648;2023-03-26T10:07:36;3.97;;;1.55;;
32633;SDS011;19043;51.012;5.648;2023-03-26T10:10:21;3.78;;;1.70;;
32633;SDS011;19043;51.012;5.648;2023-03-26T10:12:49;7.88;;;2.42;;
32633;SDS011;19043;51.012;5.648;2023-03-26T10:15:43;3.40;;;1.63;;
32633;SDS011;19043;51.012;5.648;2023-03-26T10:38:14;4.18;;;1.90;;
32633;SDS011;19043;51.012;5.648;2023-03-26T10:46:00;7.40;;;2.25;;
32633;SDS011;19043;51.012;5.648;2023-03-26T10:56:26;3.90;;;2.25;;
32633;SDS011;19043;51.012;5.648;2023-03-26T10:58:50;5.68;;;2.55;;
32633;SDS011;19043;51.012;5.648;2023-03-26T11:03:45;7.50;;;2.60;;
32633;SDS011;19043;51.012;5.648;2023-03-26T11:06:23;5.88;;;1.75;;
32633;SDS011;19043;51.012;5.648;2023-03-26T11:08:53;4.13;;;2.03;;
32633;SDS011;19043;51.012;5.648;2023-03-26T11:13:53;4.18;;;2.00;;
32633;SDS011;19043;51.012;5.648;2023-03-26T11:16:46;3.25;;;1.58;;
32633;SDS011;19043;51.012;5.648;2023-03-26T11:21:56;8.05;;;1.90;;
32633;SDS011;19043;51.012;5.648;2023-03-26T11:27:14;3.22;;;1.50;;
32633;SDS011;19043;51.012;5.648;2023-03-26T11:32:19;3.63;;;1.50;;
32633;SDS011;19043;51.012;5.648;2023-03-26T11:37:17;4.00;;;2.17;;
32633;SDS011;19043;51.012;5.648;2023-03-26T11:39:53;3.55;;;1.65;;
32633;SDS011;19043;51.012;5.648;2023-03-26T11:42:21;2.97;;;1.40;;
32633;SDS011;19043;51.012;5.648;2023-03-26T11:44:49;6.25;;;1.63;;
32633;SDS011;19043;51.012;5.648;2023-03-26T11:47:17;3.40;;;1.63;;
32633;SDS011;19043;51.012;5.648;2023-03-26T11:49:44;5.40;;;2.05;;
32633;SDS011;19043;51.012;5.648;2023-03-26T11:52:10;5.45;;;1.50;;
32633;SDS011;19043;51.012;5.648;2023-03-26T11:54:36;5.53;;;1.52;;
32633;SDS011;19043;51.012;5.648;2023-03-26T11:57:04;3.88;;;1.75;;
32633;SDS011;19043;51.012;5.648;2023-03-26T11:59:34;3.55;;;1.70;;
32633;SDS011;19043;51.012;5.648;2023-03-26T12:04:38;2.67;;;1.40;;
32633;SDS011;19043;51.012;5.648;2023-03-26T12:07:17;3.80;;;1.67;;
32633;SDS011;19043;51.012;5.648;2023-03-26T12:09:48;3.70;;;1.58;;
32633;SDS011;19043;51.012;5.648;2023-03-26T12:12:14;2.90;;;1.45;;
32633;SDS011;19043;51.012;5.648;2023-03-26T12:14:41;3.42;;;1.88;;
32633;SDS011;19043;51.012;5.648;2023-03-26T12:17:07;9.88;;;1.90;;
32633;SDS011;19043;51.012;5.648;2023-03-26T12:19:37;6.63;;;2.08;;
32633;SDS011;19043;51.012;5.648;2023-03-26T12:22:03;5.97;;;2.03;;
32633;SDS011;19043;51.012;5.648;2023-03-26T12:24:33;5.50;;;2.08;;
32633;SDS011;19043;51.012;5.648;2023-03-26T12:26:59;6.15;;;2.05;;
32633;SDS011;19043;51.012;5.648;2023-03-26T12:29:26;5.72;;;2.85;;
32633;SDS011;19043;51.012;5.648;2023-03-26T12:32:05;3.60;;;2.05;;
32633;SDS011;19043;51.012;5.648;2023-03-26T12:34:33;4.38;;;2.30;;
32633;SDS011;19043;51.012;5.648;2023-03-26T12:36:59;4.93;;;1.95;;
32633;SDS011;19043;51.012;5.648;2023-03-26T12:39:27;4.18;;;2.10;;
32633;SDS011;19043;51.012;5.648;2023-03-26T12:41:54;3.53;;;2.30;;
32633;SDS011;19043;51.012;5.648;2023-03-26T12:44:21;5.63;;;2.35;;
32633;SDS011;19043;51.012;5.648;2023-03-26T12:46:49;6.75;;;2.47;;
32633;SDS011;19043;51.012;5.648;2023-03-26T12:49:18;4.32;;;2.58;;
32633;SDS011;19043;51.012;5.648;2023-03-26T12:51:50;4.45;;;2.38;;
32633;SDS011;19043;51.012;5.648;2023-03-26T12:54:34;4.82;;;2.17;;
32633;SDS011;19043;51.012;5.648;2023-03-26T13:02:20;7.05;;;3.25;;
32633;SDS011;19043;51.012;5.648;2023-03-26T13:07:24;4.82;;;2.83;;
32633;SDS011;19043;51.012;5.648;2023-03-26T13:10:04;7.93;;;2.88;;
32633;SDS011;19043;51.012;5.648;2023-03-26T13:12:44;5.13;;;2.42;;
32633;SDS011;19043;51.012;5.648;2023-03-26T13:15:22;6.45;;;2.53;;
32633;SDS011;19043;51.012;5.648;2023-03-26T13:20:48;5.70;;;2.88;;
32633;SDS011;19043;51.012;5.648;2023-03-26T13:28:29;4.88;;;3.17;;
32633;SDS011;19043;51.012;5.648;2023-03-26T13:33:48;5.78;;;3.33;;
32633;SDS011;19043;51.012;5.648;2023-03-26T13:48:46;7.80;;;3.53;;
32633;SDS011;19043;51.012;5.648;2023-03-26T13:51:33;4.93;;;2.60;;
32633;SDS011;19043;51.012;5.648;2023-03-26T13:54:46;3.83;;;2.67;;
32633;SDS011;19043;51.012;5.648;2023-03-26T13:56:48;3.88;;;2.70;;
32633;SDS011;19043;51.012;5.648;2023-03-26T13:59:23;4.75;;;2.80;;
32633;SDS011;19043;51.012;5.648;2023-03-26T14:01:55;6.85;;;2.35;;
32633;SDS011;19043;51.012;5.648;2023-03-26T14:04:26;10.40;;;2.15;;
32633;SDS011;19043;51.012;5.648;2023-03-26T14:09:30;11.63;;;2.10;;
32633;SDS011;19043;51.012;5.648;2023-03-26T14:16:56;2.90;;;1.70;;
32633;SDS011;19043;51.012;5.648;2023-03-26T14:19:38;2.85;;;1.48;;
32633;SDS011;19043;51.012;5.648;2023-03-26T14:22:20;2.63;;;1.73;;
32633;SDS011;19043;51.012;5.648;2023-03-26T14:27:56;4.20;;;1.95;;
32633;SDS011;19043;51.012;5.648;2023-03-26T14:40:26;3.95;;;2.30;;
32633;SDS011;19043;51.012;5.648;2023-03-26T14:42:52;3.58;;;2.03;;
32633;SDS011;19043;51.012;5.648;2023-03-26T14:52:59;7.55;;;3.00;;
32633;SDS011;19043;51.012;5.648;2023-03-26T14:58:01;3.63;;;2.72;;
32633;SDS011;19043;51.012;5.648;2023-03-26T15:06:05;4.72;;;2.85;;
32633;SDS011;19043;51.012;5.648;2023-03-26T15:08:57;4.28;;;3.08;;
32633;SDS011;19043;51.012;5.648;2023-03-26T15:17:04;6.03;;;3.75;;
32633;SDS011;19043;51.012;5.648;2023-03-26T15:25:14;4.90;;;3.67;;
32633;SDS011;19043;51.012;5.648;2023-03-26T15:27:49;7.85;;;5.00;;
32633;SDS011;19043;51.012;5.648;2023-03-26T15:30:25;7.13;;;5.13;;
32633;SDS011;19043;51.012;5.648;2023-03-26T15:40:55;8.57;;;6.43;;
32633;SDS011;19043;51.012;5.648;2023-03-26T15:43:25;9.48;;;6.05;;
32633;SDS011;19043;51.012;5.648;2023-03-26T15:49:09;12.85;;;6.60;;
32633;SDS011;19043;51.012;5.648;2023-03-26T15:51:32;9.50;;;7.00;;
32633;SDS011;19043;51.012;5.648;2023-03-26T15:59:21;7.55;;;6.50;;
32633;SDS011;19043;51.012;5.648;2023-03-26T16:12:30;7.22;;;5.63;;
32633;SDS011;19043;51.012;5.648;2023-03-26T16:20:21;7.45;;;5.40;;
32633;SDS011;19043;51.012;5.648;2023-03-26T16:22:56;8.25;;;6.32;;
32633;SDS011;19043;51.012;5.648;2023-03-26T16:25:30;7.93;;;5.60;;
32633;SDS011;19043;51.012;5.648;2023-03-26T16:30:34;11.10;;;7.03;;
32633;SDS011;19043;51.012;5.648;2023-03-26T16:33:13;13.73;;;7.10;;
32633;SDS011;19043;51.012;5.648;2023-03-26T16:38:12;14.40;;;8.00;;
32633;SDS011;19043;51.012;5.648;2023-03-26T16:40:55;13.55;;;7.43;;
32633;SDS011;19043;51.012;5.648;2023-03-26T16:48:39;22.45;;;8.70;;
32633;SDS011;19043;51.012;5.648;2023-03-26T16:56:26;19.67;;;8.18;;
32633;SDS011;19043;51.012;5.648;2023-03-26T16:58:55;21.10;;;8.70;;
32633;SDS011;19043;51.012;5.648;2023-03-26T17:01:32;21.92;;;8.73;;
32633;SDS011;19043;51.012;5.648;2023-03-26T17:03:59;10.07;;;5.70;;
32633;SDS011;19043;51.012;5.648;2023-03-26T17:06:30;20.52;;;8.57;;
32633;SDS011;19043;51.012;5.648;2023-03-26T17:11:34;17.25;;;8.40;;
32633;SDS011;19043;51.012;5.648;2023-03-26T17:14:19;23.88;;;9.02;;
32633;SDS011;19043;51.012;5.648;2023-03-26T17:22:09;23.27;;;7.95;;
32633;SDS011;19043;51.012;5.648;2023-03-26T17:32:13;18.45;;;7.82;;
32633;SDS011;19043;51.012;5.648;2023-03-26T17:44:40;16.13;;;5.65;;
32633;SDS011;19043;51.012;5.648;2023-03-26T17:47:17;11.90;;;5.47;;
32633;SDS011;19043;51.012;5.648;2023-03-26T17:49:44;21.40;;;6.25;;
32633;SDS011;19043;51.012;5.648;2023-03-26T17:52:19;20.63;;;6.00;;
32633;SDS011;19043;51.012;5.648;2023-03-26T17:54:47;18.33;;;5.35;;
32633;SDS011;19043;51.012;5.648;2023-03-26T17:57:20;13.70;;;4.65;;
32633;SDS011;19043;51.012;5.648;2023-03-26T17:59:46;18.30;;;5.40;;
32633;SDS011;19043;51.012;5.648;2023-03-26T18:02:14;13.43;;;5.03;;
32633;SDS011;19043;51.012;5.648;2023-03-26T18:04:40;13.85;;;5.20;;
32633;SDS011;19043;51.012;5.648;2023-03-26T18:15:24;16.83;;;5.20;;
32633;SDS011;19043;51.012;5.648;2023-03-26T18:17:54;22.08;;;5.05;;
32633;SDS011;19043;51.012;5.648;2023-03-26T18:20:21;15.40;;;5.40;;
32633;SDS011;19043;51.012;5.648;2023-03-26T18:22:47;20.70;;;4.85;;
32633;SDS011;19043;51.012;5.648;2023-03-26T18:25:24;13.25;;;4.18;;
32633;SDS011;19043;51.012;5.648;2023-03-26T18:27:51;12.65;;;4.97;;
32633;SDS011;19043;51.012;5.648;2023-03-26T18:30:21;13.40;;;5.35;;
32633;SDS011;19043;51.012;5.648;2023-03-26T18:33:03;26.73;;;6.25;;
32633;SDS011;19043;51.012;5.648;2023-03-26T18:35:43;19.02;;;5.70;;
32633;SDS011;19043;51.012;5.648;2023-03-26T18:38:16;17.48;;;4.95;;
32633;SDS011;19043;51.012;5.648;2023-03-26T18:43:17;14.43;;;4.97;;
32633;SDS011;19043;51.012;5.648;2023-03-26T18:45:44;20.45;;;5.05;;
32633;SDS011;19043;51.012;5.648;2023-03-26T18:48:14;16.27;;;4.72;;
32633;SDS011;19043;51.012;5.648;2023-03-26T18:50:42;11.95;;;4.35;;
32633;SDS011;19043;51.012;5.648;2023-03-26T18:53:14;13.20;;;4.57;;
32633;SDS011;19043;51.012;5.648;2023-03-26T18:55:41;13.27;;;5.00;;
32633;SDS011;19043;51.012;5.648;2023-03-26T19:00:41;14.05;;;4.88;;
32633;SDS011;19043;51.012;5.648;2023-03-26T19:03:09;11.82;;;4.57;;
32633;SDS011;19043;51.012;5.648;2023-03-26T19:05:34;13.98;;;4.57;;
32633;SDS011;19043;51.012;5.648;2023-03-26T19:08:00;16.08;;;4.05;;
32633;SDS011;19043;51.012;5.648;2023-03-26T19:10:27;10.88;;;4.18;;
32633;SDS011;19043;51.012;5.648;2023-03-26T19:12:54;9.95;;;4.22;;
32633;SDS011;19043;51.012;5.648;2023-03-26T19:15:21;13.90;;;4.60;;
32633;SDS011;19043;51.012;5.648;2023-03-26T19:17:47;16.25;;;5.88;;
32633;SDS011;19043;51.012;5.648;2023-03-26T19:20:23;18.10;;;4.63;;
32633;SDS011;19043;51.012;5.648;2023-03-26T19:22:50;18.13;;;5.15;;
32633;SDS011;19043;51.012;5.648;2023-03-26T19:25:50;16.25;;;5.45;;
32633;SDS011;19043;51.012;5.648;2023-03-26T19:28:29;9.98;;;4.47;;
32633;SDS011;19043;51.012;5.648;2023-03-26T19:30:54;12.50;;;4.78;;
32633;SDS011;19043;51.012;5.648;2023-03-26T19:33:21;8.00;;;4.28;;
32633;SDS011;19043;51.012;5.648;2023-03-26T19:35:59;18.05;;;4.60;;
32633;SDS011;19043;51.012;5.648;2023-03-26T19:38:26;10.50;;;4.65;;
32633;SDS011;19043;51.012;5.648;2023-03-26T19:40:56;11.63;;;4.40;;
32633;SDS011;19043;51.012;5.648;2023-03-26T19:43:22;14.65;;;4.50;;
32633;SDS011;19043;51.012;5.648;2023-03-26T19:45:48;12.55;;;4.43;;
32633;SDS011;19043;51.012;5.648;2023-03-26T19:48:15;14.23;;;4.63;;
32633;SDS011;19043;51.012;5.648;2023-03-26T19:50:42;12.65;;;4.30;;
32633;SDS011;19043;51.012;5.648;2023-03-26T19:53:12;6.35;;;3.65;;
32633;SDS011;19043;51.012;5.648;2023-03-26T19:55:38;12.48;;;3.30;;
32633;SDS011;19043;51.012;5.648;2023-03-26T19:58:04;10.27;;;3.58;;
32633;SDS011;19043;51.012;5.648;2023-03-26T20:00:30;9.65;;;4.07;;
32633;SDS011;19043;51.012;5.648;2023-03-26T20:02:55;12.10;;;4.05;;
32633;SDS011;19043;51.012;5.648;2023-03-26T20:05:25;9.63;;;3.55;;
32633;SDS011;19043;51.012;5.648;2023-03-26T20:07:51;14.98;;;3.95;;
32633;SDS011;19043;51.012;5.648;2023-03-26T20:10:18;18.60;;;4.35;;
32633;SDS011;19043;51.012;5.648;2023-03-26T20:12:43;11.65;;;3.88;;
32633;SDS011;19043;51.012;5.648;2023-03-26T20:15:17;10.18;;;3.50;;
32633;SDS011;19043;51.012;5.648;2023-03-26T20:17:44;17.27;;;3.88;;
32633;SDS011;19043;51.012;5.648;2023-03-26T20:20:10;9.32;;;3.58;;